sensor_id;sensor_type;location;lat;lon;timestamp;temperature;humidity
1377;DHT22;682;52.502;13.488;2023-07-13T00:00:36;21.50;1.00
1377;DHT22;682;52.502;13.488;2023-07-13T00:03:04;21.40;1.00
1377;DHT22;682;52.502;13.488;2023-07-13T00:05:36;21.40;1.00
1377;DHT22;682;52.502;13.488;2023-07-13T00:08:04;21.40;1.00
1377;DHT22;682;52.502;13.488;2023-07-13T00:10:31;21.40;1.00
1377;DHT22;682;52.502;13.488;2023-07-13T00:12:58;21.40;1.00
1377;DHT22;682;52.502;13.488;2023-07-13T00:15:27;21.40;1.00
1377;DHT22;682;52.502;13.488;2023-07-13T00:17:55;21.40;1.00
1377;DHT22;682;52.502;13.488;2023-07-13T00:20:24;21.30;1.00
1377;DHT22;682;52.502;13.488;2023-07-13T00:22:53;21.30;1.00
1377;DHT22;682;52.502;13.488;2023-07-13T00:25:20;21.30;1.00
1377;DHT22;682;52.502;13.488;2023-07-13T00:27:51;21.30;1.00
1377;DHT22;682;52.502;13.488;2023-07-13T00:30:21;21.30;1.00
1377;DHT22;682;52.502;13.488;2023-07-13T00:32:49;21.20;1.00
1377;DHT22;682;52.502;13.488;2023-07-13T00:35:16;21.20;1.00
1377;DHT22;682;52.502;13.488;2023-07-13T00:37:44;21.20;1.00
1377;DHT22;682;52.502;13.488;2023-07-13T00:40:16;21.20;1.00
1377;DHT22;682;52.502;13.488;2023-07-13T00:42:45;21.10;1.00
1377;DHT22;682;52.502;13.488;2023-07-13T00:48:22;21.10;1.00
1377;DHT22;682;52.502;13.488;2023-07-13T00:50:52;21.00;1.00
1377;DHT22;682;52.502;13.488;2023-07-13T00:53:27;21.00;1.00
1377;DHT22;682;52.502;13.488;2023-07-13T00:55:58;21.00;1.00
1377;DHT22;682;52.502;13.488;2023-07-13T00:58:25;20.80;1.00
1377;DHT22;682;52.502;13.488;2023-07-13T01:01:01;20.80;1.00
1377;DHT22;682;52.502;13.488;2023-07-13T01:03:30;20.70;1.00
1377;DHT22;682;52.502;13.488;2023-07-13T01:05:58;20.60;1.00
1377;DHT22;682;52.502;13.488;2023-07-13T01:08:25;20.50;1.00
1377;DHT22;682;52.502;13.488;2023-07-13T01:10:53;20.50;1.00
1377;DHT22;682;52.502;13.488;2023-07-13T01:13:28;20.40;1.00
1377;DHT22;682;52.502;13.488;2023-07-13T01:15:58;20.40;1.00
1377;DHT22;682;52.502;13.488;2023-07-13T01:18:28;20.30;1.00
1377;DHT22;682;52.502;13.488;2023-07-13T01:21:00;20.20;1.00
1377;DHT22;682;52.502;13.488;2023-07-13T01:23:29;20.20;1.00
1377;DHT22;682;52.502;13.488;2023-07-13T01:25:57;20.10;1.00
1377;DHT22;682;52.502;13.488;2023-07-13T01:28:26;19.90;1.00
1377;DHT22;682;52.502;13.488;2023-07-13T01:30:56;19.90;1.00
1377;DHT22;682;52.502;13.488;2023-07-13T01:33:23;19.80;1.00
1377;DHT22;682;52.502;13.488;2023-07-13T01:35:51;19.80;1.00
1377;DHT22;682;52.502;13.488;2023-07-13T01:38:21;19.80;1.00
1377;DHT22;682;52.502;13.488;2023-07-13T01:40:50;19.70;1.00
1377;DHT22;682;52.502;13.488;2023-07-13T01:43:17;19.70;1.00
1377;DHT22;682;52.502;13.488;2023-07-13T01:45:45;19.70;1.00
1377;DHT22;682;52.502;13.488;2023-07-13T01:48:24;19.60;1.00
1377;DHT22;682;52.502;13.488;2023-07-13T01:50:52;19.60;1.00
1377;DHT22;682;52.502;13.488;2023-07-13T01:53:21;19.60;1.00
1377;DHT22;682;52.502;13.488;2023-07-13T01:55:50;19.50;1.00
1377;DHT22;682;52.502;13.488;2023-07-13T01:58:17;19.50;1.00
1377;DHT22;682;52.502;13.488;2023-07-13T02:00:47;19.40;1.00
1377;DHT22;682;52.502;13.488;2023-07-13T02:03:14;19.40;1.00
1377;DHT22;682;52.502;13.488;2023-07-13T02:05:46;19.30;1.00
1377;DHT22;682;52.502;13.488;2023-07-13T02:08:13;19.30;1.00
1377;DHT22;682;52.502;13.488;2023-07-13T02:10:42;19.20;1.00
1377;DHT22;682;52.502;13.488;2023-07-13T02:13:09;19.20;1.00
1377;DHT22;682;52.502;13.488;2023-07-13T02:15:38;19.20;1.00
1377;DHT22;682;52.502;13.488;2023-07-13T02:18:06;19.20;1.00
1377;DHT22;682;52.502;13.488;2023-07-13T02:20:33;19.30;1.00
1377;DHT22;682;52.502;13.488;2023-07-13T02:23:06;19.30;1.00
1377;DHT22;682;52.502;13.488;2023-07-13T02:25:33;19.30;1.00
1377;DHT22;682;52.502;13.488;2023-07-13T02:28:01;19.30;1.00
1377;DHT22;682;52.502;13.488;2023-07-13T02:30:29;19.30;1.00
1377;DHT22;682;52.502;13.488;2023-07-13T02:32:56;19.20;1.00
1377;DHT22;682;52.502;13.488;2023-07-13T02:35:24;19.20;1.00
1377;DHT22;682;52.502;13.488;2023-07-13T02:37:50;19.20;1.00
1377;DHT22;682;52.502;13.488;2023-07-13T02:40:17;19.20;1.00
1377;DHT22;682;52.502;13.488;2023-07-13T02:42:44;19.10;1.00
1377;DHT22;682;52.502;13.488;2023-07-13T02:45:13;19.00;1.00
1377;DHT22;682;52.502;13.488;2023-07-13T02:47:41;18.90;1.00
1377;DHT22;682;52.502;13.488;2023-07-13T02:50:08;18.90;1.00
1377;DHT22;682;52.502;13.488;2023-07-13T02:52:36;18.90;1.00
1377;DHT22;682;52.502;13.488;2023-07-13T02:55:03;18.90;1.00
1377;DHT22;682;52.502;13.488;2023-07-13T02:57:30;18.90;1.00
1377;DHT22;682;52.502;13.488;2023-07-13T03:00:00;18.90;1.00
1377;DHT22;682;52.502;13.488;2023-07-13T03:02:32;18.90;1.00
1377;DHT22;682;52.502;13.488;2023-07-13T03:04:59;18.90;1.00
1377;DHT22;682;52.502;13.488;2023-07-13T03:07:26;18.90;1.00
1377;DHT22;682;52.502;13.488;2023-07-13T03:09:54;18.80;1.00
1377;DHT22;682;52.502;13.488;2023-07-13T03:12:22;18.80;1.00
1377;DHT22;682;52.502;13.488;2023-07-13T03:14:49;18.70;1.00
1377;DHT22;682;52.502;13.488;2023-07-13T03:17:16;18.70;1.00
1377;DHT22;682;52.502;13.488;2023-07-13T03:19:45;18.70;1.00
1377;DHT22;682;52.502;13.488;2023-07-13T03:22:16;18.70;1.00
1377;DHT22;682;52.502;13.488;2023-07-13T03:24:43;18.70;1.00
1377;DHT22;682;52.502;13.488;2023-07-13T03:27:10;18.70;1.00
1377;DHT22;682;52.502;13.488;2023-07-13T03:29:37;18.70;1.00
1377;DHT22;682;52.502;13.488;2023-07-13T03:32:05;18.70;1.00
1377;DHT22;682;52.502;13.488;2023-07-13T03:34:32;18.80;1.00
1377;DHT22;682;52.502;13.488;2023-07-13T03:37:04;18.80;1.00
1377;DHT22;682;52.502;13.488;2023-07-13T03:39:31;18.90;1.00
1377;DHT22;682;52.502;13.488;2023-07-13T03:41:58;18.90;1.00
1377;DHT22;682;52.502;13.488;2023-07-13T03:44:29;19.00;1.00
1377;DHT22;682;52.502;13.488;2023-07-13T03:46:56;19.10;1.00
1377;DHT22;682;52.502;13.488;2023-07-13T03:49:23;19.10;1.00
1377;DHT22;682;52.502;13.488;2023-07-13T03:51:50;19.20;1.00
1377;DHT22;682;52.502;13.488;2023-07-13T03:54:18;19.30;1.00
1377;DHT22;682;52.502;13.488;2023-07-13T03:56:45;19.40;1.00
1377;DHT22;682;52.502;13.488;2023-07-13T03:59:12;19.50;1.00
1377;DHT22;682;52.502;13.488;2023-07-13T04:01:40;19.60;1.00
1377;DHT22;682;52.502;13.488;2023-07-13T04:04:08;19.70;1.00
1377;DHT22;682;52.502;13.488;2023-07-13T04:06:35;19.70;1.00
1377;DHT22;682;52.502;13.488;2023-07-13T04:09:04;19.70;1.00
1377;DHT22;682;52.502;13.488;2023-07-13T04:11:34;19.80;1.00
1377;DHT22;682;52.502;13.488;2023-07-13T04:14:02;19.80;1.00
1377;DHT22;682;52.502;13.488;2023-07-13T04:16:29;19.90;1.00
1377;DHT22;682;52.502;13.488;2023-07-13T04:18:56;19.90;1.00
1377;DHT22;682;52.502;13.488;2023-07-13T04:21:25;20.00;1.00
1377;DHT22;682;52.502;13.488;2023-07-13T04:23:53;20.00;1.00
1377;DHT22;682;52.502;13.488;2023-07-13T04:26:20;20.10;1.00
1377;DHT22;682;52.502;13.488;2023-07-13T04:28:49;20.20;1.00
1377;DHT22;682;52.502;13.488;2023-07-13T04:31:17;20.20;1.00
1377;DHT22;682;52.502;13.488;2023-07-13T04:33:44;20.20;1.00
1377;DHT22;682;52.502;13.488;2023-07-13T04:36:12;20.20;1.00
1377;DHT22;682;52.502;13.488;2023-07-13T04:38:39;20.20;1.00
1377;DHT22;682;52.502;13.488;2023-07-13T04:41:07;20.20;1.00
1377;DHT22;682;52.502;13.488;2023-07-13T04:43:35;20.20;1.00
1377;DHT22;682;52.502;13.488;2023-07-13T04:46:08;20.20;1.00
1377;DHT22;682;52.502;13.488;2023-07-13T04:48:37;20.30;1.00
1377;DHT22;682;52.502;13.488;2023-07-13T04:51:06;20.40;1.00
1377;DHT22;682;52.502;13.488;2023-07-13T04:53:34;20.40;1.00
1377;DHT22;682;52.502;13.488;2023-07-13T04:56:03;20.40;1.00
1377;DHT22;682;52.502;13.488;2023-07-13T04:58:30;20.40;1.00
1377;DHT22;682;52.502;13.488;2023-07-13T05:01:11;20.40;1.00
1377;DHT22;682;52.502;13.488;2023-07-13T05:03:44;20.40;1.00
1377;DHT22;682;52.502;13.488;2023-07-13T05:06:13;20.50;1.00
1377;DHT22;682;52.502;13.488;2023-07-13T05:08:42;20.50;1.00
1377;DHT22;682;52.502;13.488;2023-07-13T05:11:09;20.50;1.00
1377;DHT22;682;52.502;13.488;2023-07-13T05:13:37;20.50;1.00
1377;DHT22;682;52.502;13.488;2023-07-13T05:16:05;20.50;1.00
1377;DHT22;682;52.502;13.488;2023-07-13T05:18:36;20.60;1.00
1377;DHT22;682;52.502;13.488;2023-07-13T05:21:05;20.60;1.00
1377;DHT22;682;52.502;13.488;2023-07-13T05:23:34;20.70;1.00
1377;DHT22;682;52.502;13.488;2023-07-13T05:26:03;20.70;1.00
1377;DHT22;682;52.502;13.488;2023-07-13T05:28:32;20.70;1.00
1377;DHT22;682;52.502;13.488;2023-07-13T05:31:00;20.70;1.00
1377;DHT22;682;52.502;13.488;2023-07-13T05:33:27;20.80;1.00
1377;DHT22;682;52.502;13.488;2023-07-13T05:35:56;20.90;1.00
1377;DHT22;682;52.502;13.488;2023-07-13T05:38:23;20.90;1.00
1377;DHT22;682;52.502;13.488;2023-07-13T05:40:51;21.00;1.00
1377;DHT22;682;52.502;13.488;2023-07-13T05:43:18;21.10;1.00
1377;DHT22;682;52.502;13.488;2023-07-13T05:45:45;21.20;1.00
1377;DHT22;682;52.502;13.488;2023-07-13T05:48:12;21.20;1.00
1377;DHT22;682;52.502;13.488;2023-07-13T05:50:41;21.30;1.00
1377;DHT22;682;52.502;13.488;2023-07-13T05:53:10;21.40;1.00
1377;DHT22;682;52.502;13.488;2023-07-13T05:55:41;21.40;1.00
1377;DHT22;682;52.502;13.488;2023-07-13T05:58:08;21.40;1.00
1377;DHT22;682;52.502;13.488;2023-07-13T06:00:38;21.30;1.00
1377;DHT22;682;52.502;13.488;2023-07-13T06:03:06;21.40;1.00
1377;DHT22;682;52.502;13.488;2023-07-13T06:05:37;21.40;1.00
1377;DHT22;682;52.502;13.488;2023-07-13T06:08:05;21.50;1.00
1377;DHT22;682;52.502;13.488;2023-07-13T06:10:37;21.50;1.00
1377;DHT22;682;52.502;13.488;2023-07-13T06:13:05;21.50;1.00
1377;DHT22;682;52.502;13.488;2023-07-13T06:15:32;21.50;1.00
1377;DHT22;682;52.502;13.488;2023-07-13T06:17:59;21.60;1.00
1377;DHT22;682;52.502;13.488;2023-07-13T06:20:26;21.70;1.00
1377;DHT22;682;52.502;13.488;2023-07-13T06:22:56;21.80;1.00
1377;DHT22;682;52.502;13.488;2023-07-13T06:25:23;21.80;1.00
1377;DHT22;682;52.502;13.488;2023-07-13T06:27:53;21.90;1.00
1377;DHT22;682;52.502;13.488;2023-07-13T06:30:20;21.90;1.00
1377;DHT22;682;52.502;13.488;2023-07-13T06:32:47;22.00;1.00
1377;DHT22;682;52.502;13.488;2023-07-13T06:35:14;22.10;1.00
1377;DHT22;682;52.502;13.488;2023-07-13T06:37:41;22.20;1.00
1377;DHT22;682;52.502;13.488;2023-07-13T06:40:09;22.30;1.00
1377;DHT22;682;52.502;13.488;2023-07-13T06:42:36;22.40;1.00
1377;DHT22;682;52.502;13.488;2023-07-13T06:45:09;22.50;1.00
1377;DHT22;682;52.502;13.488;2023-07-13T06:47:42;22.50;1.00
1377;DHT22;682;52.502;13.488;2023-07-13T06:50:11;22.60;1.00
1377;DHT22;682;52.502;13.488;2023-07-13T06:52:40;22.60;1.00
1377;DHT22;682;52.502;13.488;2023-07-13T06:55:10;22.80;1.00
1377;DHT22;682;52.502;13.488;2023-07-13T06:57:37;22.90;1.00
1377;DHT22;682;52.502;13.488;2023-07-13T07:00:08;22.90;1.00
1377;DHT22;682;52.502;13.488;2023-07-13T07:02:36;22.90;1.00
1377;DHT22;682;52.502;13.488;2023-07-13T07:05:03;23.00;1.00
1377;DHT22;682;52.502;13.488;2023-07-13T07:07:33;23.00;1.00
1377;DHT22;682;52.502;13.488;2023-07-13T07:10:02;23.00;1.00
1377;DHT22;682;52.502;13.488;2023-07-13T07:12:29;23.10;1.00
1377;DHT22;682;52.502;13.488;2023-07-13T07:14:57;23.00;1.00
1377;DHT22;682;52.502;13.488;2023-07-13T07:17:26;23.00;1.00
1377;DHT22;682;52.502;13.488;2023-07-13T07:19:56;23.00;1.00
1377;DHT22;682;52.502;13.488;2023-07-13T07:22:25;23.00;1.00
1377;DHT22;682;52.502;13.488;2023-07-13T07:24:55;23.00;1.00
1377;DHT22;682;52.502;13.488;2023-07-13T07:27:24;23.00;1.00
1377;DHT22;682;52.502;13.488;2023-07-13T07:29:59;23.10;1.00
1377;DHT22;682;52.502;13.488;2023-07-13T07:32:28;23.20;1.00
1377;DHT22;682;52.502;13.488;2023-07-13T07:34:59;23.30;1.00
1377;DHT22;682;52.502;13.488;2023-07-13T07:37:26;23.40;1.00
1377;DHT22;682;52.502;13.488;2023-07-13T07:40:02;23.60;1.00
1377;DHT22;682;52.502;13.488;2023-07-13T07:42:38;23.80;1.00
1377;DHT22;682;52.502;13.488;2023-07-13T07:45:08;24.30;1.00
1377;DHT22;682;52.502;13.488;2023-07-13T07:47:52;24.50;1.00
1377;DHT22;682;52.502;13.488;2023-07-13T07:50:20;24.80;1.00
1377;DHT22;682;52.502;13.488;2023-07-13T07:52:48;25.00;1.00
1377;DHT22;682;52.502;13.488;2023-07-13T07:55:15;25.30;1.00
1377;DHT22;682;52.502;13.488;2023-07-13T07:57:50;25.60;1.00
1377;DHT22;682;52.502;13.488;2023-07-13T08:00:19;25.60;1.00
1377;DHT22;682;52.502;13.488;2023-07-13T08:02:47;25.80;1.00
1377;DHT22;682;52.502;13.488;2023-07-13T08:05:22;26.00;1.00
1377;DHT22;682;52.502;13.488;2023-07-13T08:07:51;26.20;1.00
1377;DHT22;682;52.502;13.488;2023-07-13T08:10:19;26.00;1.00
1377;DHT22;682;52.502;13.488;2023-07-13T08:12:49;25.80;1.00
1377;DHT22;682;52.502;13.488;2023-07-13T08:15:17;25.70;1.00
1377;DHT22;682;52.502;13.488;2023-07-13T08:17:48;25.80;1.00
1377;DHT22;682;52.502;13.488;2023-07-13T08:20:32;25.80;1.00
1377;DHT22;682;52.502;13.488;2023-07-13T08:23:01;25.70;1.00
1377;DHT22;682;52.502;13.488;2023-07-13T08:25:30;25.80;1.00
1377;DHT22;682;52.502;13.488;2023-07-13T08:28:17;26.00;1.00
1377;DHT22;682;52.502;13.488;2023-07-13T08:30:54;26.40;1.00
1377;DHT22;682;52.502;13.488;2023-07-13T08:33:26;26.60;1.00
1377;DHT22;682;52.502;13.488;2023-07-13T08:35:55;26.60;1.00
1377;DHT22;682;52.502;13.488;2023-07-13T08:38:27;26.60;1.00
1377;DHT22;682;52.502;13.488;2023-07-13T08:41:02;26.50;1.00
1377;DHT22;682;52.502;13.488;2023-07-13T08:43:37;26.40;1.00
1377;DHT22;682;52.502;13.488;2023-07-13T08:46:24;26.30;1.00
1377;DHT22;682;52.502;13.488;2023-07-13T08:48:58;26.30;1.00
1377;DHT22;682;52.502;13.488;2023-07-13T08:51:44;26.40;1.00
1377;DHT22;682;52.502;13.488;2023-07-13T08:54:28;26.30;1.00
1377;DHT22;682;52.502;13.488;2023-07-13T08:57:11;26.10;1.00
1377;DHT22;682;52.502;13.488;2023-07-13T08:59:40;26.10;1.00
1377;DHT22;682;52.502;13.488;2023-07-13T09:02:23;26.10;1.00
1377;DHT22;682;52.502;13.488;2023-07-13T09:04:56;26.10;1.00
1377;DHT22;682;52.502;13.488;2023-07-13T09:07:39;25.90;1.00
1377;DHT22;682;52.502;13.488;2023-07-13T09:10:15;25.50;1.00
1377;DHT22;682;52.502;13.488;2023-07-13T09:12:57;25.40;1.00
1377;DHT22;682;52.502;13.488;2023-07-13T09:15:31;25.30;1.00
1377;DHT22;682;52.502;13.488;2023-07-13T09:18:03;25.40;1.00
1377;DHT22;682;52.502;13.488;2023-07-13T09:20:34;25.30;1.00
1377;DHT22;682;52.502;13.488;2023-07-13T09:23:06;25.30;1.00
1377;DHT22;682;52.502;13.488;2023-07-13T09:25:36;25.60;1.00
1377;DHT22;682;52.502;13.488;2023-07-13T09:28:15;25.80;1.00
1377;DHT22;682;52.502;13.488;2023-07-13T09:31:03;25.80;1.00
1377;DHT22;682;52.502;13.488;2023-07-13T09:33:31;25.90;1.00
1377;DHT22;682;52.502;13.488;2023-07-13T09:35:59;26.00;1.00
1377;DHT22;682;52.502;13.488;2023-07-13T09:38:29;26.10;1.00
1377;DHT22;682;52.502;13.488;2023-07-13T09:41:19;26.50;1.00
1377;DHT22;682;52.502;13.488;2023-07-13T09:44:07;27.20;1.00
1377;DHT22;682;52.502;13.488;2023-07-13T09:46:37;28.90;1.00
1377;DHT22;682;52.502;13.488;2023-07-13T09:49:05;30.40;1.00
1377;DHT22;682;52.502;13.488;2023-07-13T09:51:32;31.60;1.00
1377;DHT22;682;52.502;13.488;2023-07-13T09:54:01;31.20;1.00
1377;DHT22;682;52.502;13.488;2023-07-13T09:56:29;30.10;1.00
1377;DHT22;682;52.502;13.488;2023-07-13T09:58:58;29.80;1.00
1377;DHT22;682;52.502;13.488;2023-07-13T10:01:33;30.30;1.00
1377;DHT22;682;52.502;13.488;2023-07-13T10:04:02;31.30;1.00
1377;DHT22;682;52.502;13.488;2023-07-13T10:06:38;32.30;1.00
1377;DHT22;682;52.502;13.488;2023-07-13T10:09:20;32.20;1.00
1377;DHT22;682;52.502;13.488;2023-07-13T10:11:54;32.50;1.00
1377;DHT22;682;52.502;13.488;2023-07-13T10:14:22;32.00;1.00
1377;DHT22;682;52.502;13.488;2023-07-13T10:16:58;31.00;1.00
1377;DHT22;682;52.502;13.488;2023-07-13T10:19:31;29.80;1.00
1377;DHT22;682;52.502;13.488;2023-07-13T10:22:00;29.10;1.00
1377;DHT22;682;52.502;13.488;2023-07-13T10:24:35;29.70;1.00
1377;DHT22;682;52.502;13.488;2023-07-13T10:27:09;31.00;1.00
1377;DHT22;682;52.502;13.488;2023-07-13T10:29:43;32.20;1.00
1377;DHT22;682;52.502;13.488;2023-07-13T10:32:14;33.70;1.00
1377;DHT22;682;52.502;13.488;2023-07-13T10:34:44;34.60;1.00
1377;DHT22;682;52.502;13.488;2023-07-13T10:37:18;35.20;1.00
1377;DHT22;682;52.502;13.488;2023-07-13T10:42:54;33.80;1.00
1377;DHT22;682;52.502;13.488;2023-07-13T10:45:24;32.40;1.00
1377;DHT22;682;52.502;13.488;2023-07-13T10:47:54;32.30;1.00
1377;DHT22;682;52.502;13.488;2023-07-13T10:50:23;32.70;1.00
1377;DHT22;682;52.502;13.488;2023-07-13T10:52:53;32.10;1.00
1377;DHT22;682;52.502;13.488;2023-07-13T10:55:35;31.20;1.00
1377;DHT22;682;52.502;13.488;2023-07-13T10:58:03;30.60;1.00
1377;DHT22;682;52.502;13.488;2023-07-13T11:00:44;30.20;1.00
1377;DHT22;682;52.502;13.488;2023-07-13T11:03:17;29.60;1.00
1377;DHT22;682;52.502;13.488;2023-07-13T11:05:49;29.90;1.00
1377;DHT22;682;52.502;13.488;2023-07-13T11:08:33;31.80;1.00
1377;DHT22;682;52.502;13.488;2023-07-13T11:11:04;33.70;1.00
1377;DHT22;682;52.502;13.488;2023-07-13T11:13:59;35.00;1.00
1377;DHT22;682;52.502;13.488;2023-07-13T11:16:36;35.80;1.00
1377;DHT22;682;52.502;13.488;2023-07-13T11:19:29;36.10;1.00
1377;DHT22;682;52.502;13.488;2023-07-13T11:22:13;36.60;1.00
1377;DHT22;682;52.502;13.488;2023-07-13T11:25:00;37.10;1.00
1377;DHT22;682;52.502;13.488;2023-07-13T11:27:38;37.40;1.00
1377;DHT22;682;52.502;13.488;2023-07-13T11:30:13;37.40;1.00
1377;DHT22;682;52.502;13.488;2023-07-13T11:32:52;37.20;1.00
1377;DHT22;682;52.502;13.488;2023-07-13T11:35:33;38.00;1.00
1377;DHT22;682;52.502;13.488;2023-07-13T11:38:02;38.20;1.00
1377;DHT22;682;52.502;13.488;2023-07-13T11:40:30;38.50;1.00
1377;DHT22;682;52.502;13.488;2023-07-13T11:43:02;38.60;1.00
1377;DHT22;682;52.502;13.488;2023-07-13T11:45:35;38.60;1.00
1377;DHT22;682;52.502;13.488;2023-07-13T11:48:05;38.40;1.00
1377;DHT22;682;52.502;13.488;2023-07-13T11:50:32;38.40;1.00
1377;DHT22;682;52.502;13.488;2023-07-13T11:53:01;38.80;1.00
1377;DHT22;682;52.502;13.488;2023-07-13T11:55:29;38.90;1.00
1377;DHT22;682;52.502;13.488;2023-07-13T11:57:59;39.10;1.00
1377;DHT22;682;52.502;13.488;2023-07-13T12:00:41;39.10;1.00
1377;DHT22;682;52.502;13.488;2023-07-13T12:03:11;39.20;1.00
1377;DHT22;682;52.502;13.488;2023-07-13T12:05:55;39.60;1.00
1377;DHT22;682;52.502;13.488;2023-07-13T12:08:23;39.80;1.00
1377;DHT22;682;52.502;13.488;2023-07-13T12:11:02;39.80;1.00
1377;DHT22;682;52.502;13.488;2023-07-13T12:13:36;39.90;1.00
1377;DHT22;682;52.502;13.488;2023-07-13T12:16:14;40.10;1.00
1377;DHT22;682;52.502;13.488;2023-07-13T12:18:43;40.30;1.00
1377;DHT22;682;52.502;13.488;2023-07-13T12:21:29;40.60;1.00
1377;DHT22;682;52.502;13.488;2023-07-13T12:23:57;40.70;1.00
1377;DHT22;682;52.502;13.488;2023-07-13T12:26:24;40.80;1.00
1377;DHT22;682;52.502;13.488;2023-07-13T12:29:00;41.00;1.00
1377;DHT22;682;52.502;13.488;2023-07-13T12:31:35;39.90;1.00
1377;DHT22;682;52.502;13.488;2023-07-13T12:34:06;38.80;1.00
1377;DHT22;682;52.502;13.488;2023-07-13T12:36:36;38.80;1.00
1377;DHT22;682;52.502;13.488;2023-07-13T12:39:14;38.90;1.00
1377;DHT22;682;52.502;13.488;2023-07-13T12:41:43;38.00;1.00
1377;DHT22;682;52.502;13.488;2023-07-13T12:44:17;37.80;1.00
1377;DHT22;682;52.502;13.488;2023-07-13T12:46:56;38.30;1.00
1377;DHT22;682;52.502;13.488;2023-07-13T12:49:28;38.00;1.00
1377;DHT22;682;52.502;13.488;2023-07-13T12:51:59;36.20;1.00
1377;DHT22;682;52.502;13.488;2023-07-13T12:54:28;35.50;1.00
1377;DHT22;682;52.502;13.488;2023-07-13T12:56:57;36.70;1.00
1377;DHT22;682;52.502;13.488;2023-07-13T12:59:31;37.40;1.00
1377;DHT22;682;52.502;13.488;2023-07-13T13:02:21;37.50;1.00
1377;DHT22;682;52.502;13.488;2023-07-13T13:04:51;37.90;1.00
1377;DHT22;682;52.502;13.488;2023-07-13T13:07:22;38.20;1.00
1377;DHT22;682;52.502;13.488;2023-07-13T13:09:51;38.20;1.00
1377;DHT22;682;52.502;13.488;2023-07-13T13:12:19;38.10;1.00
1377;DHT22;682;52.502;13.488;2023-07-13T13:14:49;37.20;1.00
1377;DHT22;682;52.502;13.488;2023-07-13T13:17:22;36.90;1.00
1377;DHT22;682;52.502;13.488;2023-07-13T13:19:52;35.80;1.00
1377;DHT22;682;52.502;13.488;2023-07-13T13:22:22;35.40;1.00
1377;DHT22;682;52.502;13.488;2023-07-13T13:24:50;35.60;1.00
1377;DHT22;682;52.502;13.488;2023-07-13T13:27:19;35.90;1.00
1377;DHT22;682;52.502;13.488;2023-07-13T13:29:49;35.30;1.00
1377;DHT22;682;52.502;13.488;2023-07-13T13:32:27;35.90;1.00
1377;DHT22;682;52.502;13.488;2023-07-13T13:34:54;36.70;1.00
1377;DHT22;682;52.502;13.488;2023-07-13T13:37:23;37.30;1.00
1377;DHT22;682;52.502;13.488;2023-07-13T13:39:51;37.60;1.00
1377;DHT22;682;52.502;13.488;2023-07-13T13:42:19;37.80;1.00
1377;DHT22;682;52.502;13.488;2023-07-13T13:44:46;37.80;1.00
1377;DHT22;682;52.502;13.488;2023-07-13T13:47:29;38.10;1.00
1377;DHT22;682;52.502;13.488;2023-07-13T13:49:56;38.70;1.00
1377;DHT22;682;52.502;13.488;2023-07-13T13:52:24;38.80;1.00
1377;DHT22;682;52.502;13.488;2023-07-13T13:54:52;38.60;1.00
1377;DHT22;682;52.502;13.488;2023-07-13T13:57:23;38.80;1.00
1377;DHT22;682;52.502;13.488;2023-07-13T13:59:51;38.90;1.00
1377;DHT22;682;52.502;13.488;2023-07-13T14:02:28;38.90;1.00
1377;DHT22;682;52.502;13.488;2023-07-13T14:04:58;38.80;1.00
1377;DHT22;682;52.502;13.488;2023-07-13T14:07:27;38.40;1.00
1377;DHT22;682;52.502;13.488;2023-07-13T14:09:57;37.70;1.00
1377;DHT22;682;52.502;13.488;2023-07-13T14:12:25;37.20;1.00
1377;DHT22;682;52.502;13.488;2023-07-13T14:14:54;37.30;1.00
1377;DHT22;682;52.502;13.488;2023-07-13T14:17:23;37.60;1.00
1377;DHT22;682;52.502;13.488;2023-07-13T14:19:53;38.00;1.00
1377;DHT22;682;52.502;13.488;2023-07-13T14:22:23;37.70;1.00
1377;DHT22;682;52.502;13.488;2023-07-13T14:24:52;37.60;1.00
1377;DHT22;682;52.502;13.488;2023-07-13T14:27:20;37.90;1.00
1377;DHT22;682;52.502;13.488;2023-07-13T14:29:48;37.60;1.00
1377;DHT22;682;52.502;13.488;2023-07-13T14:32:18;37.30;1.00
1377;DHT22;682;52.502;13.488;2023-07-13T14:34:45;37.40;1.00
1377;DHT22;682;52.502;13.488;2023-07-13T14:37:15;36.70;1.00
1377;DHT22;682;52.502;13.488;2023-07-13T14:39:44;35.30;1.00
1377;DHT22;682;52.502;13.488;2023-07-13T14:42:11;34.10;1.00
1377;DHT22;682;52.502;13.488;2023-07-13T14:44:38;33.50;1.00
1377;DHT22;682;52.502;13.488;2023-07-13T14:47:07;33.10;1.00
1377;DHT22;682;52.502;13.488;2023-07-13T14:49:37;33.70;1.00
1377;DHT22;682;52.502;13.488;2023-07-13T14:52:11;34.70;1.00
1377;DHT22;682;52.502;13.488;2023-07-13T14:54:49;35.40;1.00
1377;DHT22;682;52.502;13.488;2023-07-13T14:57:17;35.80;1.00
1377;DHT22;682;52.502;13.488;2023-07-13T14:59:47;35.60;1.00
1377;DHT22;682;52.502;13.488;2023-07-13T15:02:16;35.80;1.00
1377;DHT22;682;52.502;13.488;2023-07-13T15:04:44;35.80;1.00
1377;DHT22;682;52.502;13.488;2023-07-13T15:07:14;36.10;1.00
1377;DHT22;682;52.502;13.488;2023-07-13T15:09:45;35.40;1.00
1377;DHT22;682;52.502;13.488;2023-07-13T15:12:14;34.50;1.00
1377;DHT22;682;52.502;13.488;2023-07-13T15:14:42;34.70;1.00
1377;DHT22;682;52.502;13.488;2023-07-13T15:17:26;35.00;1.00
1377;DHT22;682;52.502;13.488;2023-07-13T15:19:56;35.30;1.00
1377;DHT22;682;52.502;13.488;2023-07-13T15:22:26;35.20;1.00
1377;DHT22;682;52.502;13.488;2023-07-13T15:24:55;35.50;1.00
1377;DHT22;682;52.502;13.488;2023-07-13T15:27:22;35.80;1.00
1377;DHT22;682;52.502;13.488;2023-07-13T15:29:48;35.80;1.00
1377;DHT22;682;52.502;13.488;2023-07-13T15:32:18;36.00;1.00
1377;DHT22;682;52.502;13.488;2023-07-13T15:34:45;36.00;1.00
1377;DHT22;682;52.502;13.488;2023-07-13T15:37:14;36.20;1.00
1377;DHT22;682;52.502;13.488;2023-07-13T15:39:43;36.20;1.00
1377;DHT22;682;52.502;13.488;2023-07-13T15:42:21;36.00;1.00
1377;DHT22;682;52.502;13.488;2023-07-13T15:44:51;35.90;1.00
1377;DHT22;682;52.502;13.488;2023-07-13T15:47:20;36.30;1.00
1377;DHT22;682;52.502;13.488;2023-07-13T15:49:47;36.00;1.00
1377;DHT22;682;52.502;13.488;2023-07-13T15:52:17;35.70;1.00
1377;DHT22;682;52.502;13.488;2023-07-13T15:54:46;35.80;1.00
1377;DHT22;682;52.502;13.488;2023-07-13T15:57:20;35.70;1.00
1377;DHT22;682;52.502;13.488;2023-07-13T15:59:47;35.70;1.00
1377;DHT22;682;52.502;13.488;2023-07-13T16:02:17;35.60;1.00
1377;DHT22;682;52.502;13.488;2023-07-13T16:04:48;35.40;1.00
1377;DHT22;682;52.502;13.488;2023-07-13T16:07:18;35.20;1.00
1377;DHT22;682;52.502;13.488;2023-07-13T16:09:48;35.00;1.00
1377;DHT22;682;52.502;13.488;2023-07-13T16:12:15;34.80;1.00
1377;DHT22;682;52.502;13.488;2023-07-13T16:14:44;34.80;1.00
1377;DHT22;682;52.502;13.488;2023-07-13T16:17:11;35.00;1.00
1377;DHT22;682;52.502;13.488;2023-07-13T16:19:39;34.80;1.00
1377;DHT22;682;52.502;13.488;2023-07-13T16:22:13;34.20;1.00
1377;DHT22;682;52.502;13.488;2023-07-13T16:24:45;34.40;1.00
1377;DHT22;682;52.502;13.488;2023-07-13T16:27:12;34.60;1.00
1377;DHT22;682;52.502;13.488;2023-07-13T16:29:40;34.30;1.00
1377;DHT22;682;52.502;13.488;2023-07-13T16:32:12;34.10;1.00
1377;DHT22;682;52.502;13.488;2023-07-13T16:34:41;34.10;1.00
1377;DHT22;682;52.502;13.488;2023-07-13T16:37:17;34.30;1.00
1377;DHT22;682;52.502;13.488;2023-07-13T16:39:49;34.20;1.00
1377;DHT22;682;52.502;13.488;2023-07-13T16:42:20;33.70;1.00
1377;DHT22;682;52.502;13.488;2023-07-13T16:44:47;33.70;1.00